Time;durP1;ratioP1;P1;durP2;ratioP2;P2;SDS_P1;SDS_P2;PMS_P1;PMS_P2;Temp;Humidity;BMP_temperature;BMP_pressure;BME280_temperature;BME280_humidity;BME280_pressure;Samples;Min_cycle;Max_cycle;Signal;HPM_P1;HPM_P2
2021/08/14 00:01:17;;;;;;;5.28;4.20;;;;;;;25.10;47.61;100306.56;5053593;28;20103;-37
2021/08/14 00:03:43;;;;;;;8.02;4.05;;;;;;;25.10;47.42;100306.56;5053966;28;20025;-36
2021/08/14 00:06:09;;;;;;;5.93;4.07;;;;;;;25.02;47.67;100317.25;5043086;28;20430;-36
2021/08/14 00:08:34;;;;;;;6.28;4.22;;;;;;;25.25;47.13;100304.84;5033564;28;20070;-36
2021/08/14 00:11:00;;;;;;;6.15;4.43;;;;;;;25.33;46.89;100312.38;5033806;28;20052;-36
2021/08/14 00:13:25;;;;;;;7.88;4.45;;;;;;;25.29;46.84;100317.56;5033625;28;20029;-36
2021/08/14 00:15:50;;;;;;;6.35;3.90;;;;;;;24.93;47.90;100314.34;5033597;28;20040;-37
2021/08/14 00:18:16;;;;;;;6.53;3.97;;;;;;;24.08;50.02;100320.88;5033643;28;20111;-36
2021/08/14 00:20:41;;;;;;;5.45;3.90;;;;;;;23.88;50.78;100321.78;5033489;28;20034;-37
2021/08/14 00:23:07;;;;;;;7.45;4.43;;;;;;;24.54;49.02;100323.34;5033493;28;20029;-37
2021/08/14 00:25:32;;;;;;;8.23;3.92;;;;;;;24.50;49.28;100323.09;5033287;28;20029;-37
2021/08/14 00:27:58;;;;;;;6.60;4.30;;;;;;;24.59;48.91;100320.59;5033247;28;20027;-37
2021/08/14 00:30:23;;;;;;;6.35;4.03;;;;;;;24.57;49.06;100325.50;5033218;28;20025;-37
2021/08/14 00:32:51;;;;;;;6.43;4.28;;;;;;;24.44;49.22;100324.19;5033131;28;20025;-38
2021/08/14 00:35:16;;;;;;;8.02;3.83;;;;;;;24.30;49.51;100325.94;5033454;28;20036;-37
2021/08/14 00:37:42;;;;;;;7.47;3.72;;;;;;;23.81;50.97;100341.09;5033012;28;20026;-37
2021/08/14 00:40:08;;;;;;;6.47;4.20;;;;;;;23.98;50.71;100332.59;5032958;28;20052;-37
2021/08/14 00:42:34;;;;;;;5.82;4.30;;;;;;;23.75;51.21;100328.59;5032914;28;20091;-35
2021/08/14 00:45:00;;;;;;;8.48;4.50;;;;;;;23.76;51.13;100338.34;5031288;28;20036;-37
2021/08/14 00:47:25;;;;;;;7.55;3.70;;;;;;;23.86;51.07;100338.34;5032759;28;20029;-36
2021/08/14 00:49:52;;;;;;;6.07;4.03;;;;;;;23.84;51.03;100340.53;5032900;28;20470;-37
2021/08/14 00:52:17;;;;;;;6.03;4.00;;;;;;;24.13;50.44;100343.41;5032861;28;20025;-38
2021/08/14 00:54:43;;;;;;;7.68;3.88;;;;;;;24.29;49.77;100340.59;5032982;28;20036;-37
2021/08/14 00:57:08;;;;;;;8.00;4.25;;;;;;;24.35;49.69;100343.03;5032660;28;20030;-36
2021/08/14 00:59:34;;;;;;;6.95;4.28;;;;;;;24.66;48.97;100348.28;5032483;28;20473;-36
2021/08/14 01:02:01;;;;;;;5.38;4.45;;;;;;;24.89;48.51;100348.69;5031579;28;20040;-38
2021/08/14 01:04:28;;;;;;;7.90;4.28;;;;;;;24.63;48.88;100359.72;5032762;28;20025;-37
2021/08/14 01:06:53;;;;;;;6.95;4.18;;;;;;;24.95;48.06;100361.16;5048905;28;20053;-37
2021/08/14 01:09:19;;;;;;;7.80;4.40;;;;;;;24.88;48.15;100366.91;5052652;28;20126;-35
2021/08/14 01:11:44;;;;;;;7.25;4.20;;;;;;;24.96;47.97;100355.41;5052289;28;20025;-36
2021/08/14 01:14:12;;;;;;;6.95;4.55;;;;;;;25.02;48.01;100363.53;5051414;28;20025;-36
2021/08/14 01:16:37;;;;;;;6.47;4.20;;;;;;;24.91;48.16;100358.19;5052757;28;20108;-36
2021/08/14 01:19:03;;;;;;;7.15;4.28;;;;;;;24.95;48.03;100352.97;5052089;28;20566;-36
2021/08/14 01:21:30;;;;;;;7.25;4.30;;;;;;;25.06;47.69;100357.25;5050988;28;20399;-36
2021/08/14 01:23:56;;;;;;;6.15;4.20;;;;;;;24.97;47.97;100364.38;5052350;28;20051;-36
2021/08/14 01:26:22;;;;;;;10.10;4.22;;;;;;;25.00;48.08;100363.00;5052079;28;20437;-36
2021/08/14 01:28:48;;;;;;;6.03;4.55;;;;;;;24.68;48.68;100354.28;5052092;28;20033;-36
2021/08/14 01:31:14;;;;;;;8.25;4.25;;;;;;;24.72;48.48;100355.31;5052377;28;20037;-37
2021/08/14 01:33:41;;;;;;;9.60;4.10;;;;;;;25.07;47.93;100355.31;5051958;28;20025;-37
2021/08/14 01:36:10;;;;;;;6.38;4.10;;;;;;;24.86;48.57;100357.41;5052015;28;20105;-37
2021/08/14 01:38:47;;;;;;;7.05;4.10;;;;;;;24.89;48.30;100357.66;5052097;28;20028;-37
2021/08/14 01:41:12;;;;;;;7.75;4.45;;;;;;;24.99;47.97;100362.19;5052097;28;20051;-37
2021/08/14 01:44:00;;;;;;;6.63;4.00;;;;;;;25.11;47.75;100359.94;5051766;28;20044;-37
2021/08/14 01:46:27;;;;;;;6.25;3.85;;;;;;;24.98;48.01;100355.13;5051779;28;20029;-37
2021/08/14 01:48:53;;;;;;;7.60;4.20;;;;;;;24.87;48.30;100359.03;5051700;28;20034;-37
2021/08/14 01:51:19;;;;;;;6.10;4.25;;;;;;;24.78;48.51;100358.81;5052068;28;20021;-37
2021/08/14 01:53:48;;;;;;;5.15;4.25;;;;;;;25.15;47.70;100363.69;5050165;28;20024;-37
2021/08/14 01:56:14;;;;;;;6.32;4.30;;;;;;;25.18;47.44;100359.59;5050548;28;20021;-37
2021/08/14 01:58:39;;;;;;;7.07;4.10;;;;;;;25.21;47.46;100359.03;5050116;28;20087;-37
2021/08/14 02:01:04;;;;;;;8.27;4.18;;;;;;;25.22;47.31;100363.34;5049994;28;20029;-37
2021/08/14 02:03:30;;;;;;;8.65;4.32;;;;;;;25.28;47.24;100345.09;5050963;28;20029;-37
2021/08/14 02:05:55;;;;;;;8.27;4.47;;;;;;;25.10;47.62;100350.13;5042448;28;20053;-37
2021/08/14 02:08:21;;;;;;;9.10;5.00;;;;;;;25.26;47.26;100347.28;5031691;28;20025;-37
2021/08/14 02:10:46;;;;;;;11.07;4.97;;;;;;;25.31;47.16;100339.88;5031520;28;20466;-37
2021/08/14 02:13:12;;;;;;;7.15;4.82;;;;;;;25.28;46.85;100339.63;5031521;28;20040;-37
2021/08/14 02:15:37;;;;;;;6.72;4.75;;;;;;;25.21;47.14;100334.50;5031330;28;20182;-37
2021/08/14 02:18:03;;;;;;;8.32;4.38;;;;;;;25.06;47.54;100345.53;5031011;28;20025;-37
2021/08/14 02:20:28;;;;;;;6.25;4.28;;;;;;;24.94;47.74;100337.72;5031403;28;20354;-37
2021/08/14 02:22:53;;;;;;;6.68;4.50;;;;;;;24.86;48.00;100338.34;5031078;28;20033;-37
2021/08/14 02:25:19;;;;;;;7.20;4.55;;;;;;;24.92;47.68;100346.19;5031128;28;20041;-36
2021/08/14 02:27:44;;;;;;;6.05;4.70;;;;;;;24.78;48.04;100346.03;5031093;28;20028;-37
2021/08/14 02:30:10;;;;;;;8.32;4.80;;;;;;;25.09;47.47;100344.97;5030963;28;20390;-36
2021/08/14 02:32:36;;;;;;;7.13;4.43;;;;;;;25.01;47.60;100340.13;5031199;28;20033;-36
2021/08/14 02:35:01;;;;;;;6.45;4.38;;;;;;;24.89;47.80;100346.75;5031082;28;20033;-37
2021/08/14 02:37:26;;;;;;;10.63;4.88;;;;;;;25.04;47.69;100342.31;5030670;28;20029;-36
2021/08/14 02:39:52;;;;;;;7.35;4.57;;;;;;;25.14;47.63;100350.38;5030838;28;20460;-37
2021/08/14 02:42:17;;;;;;;8.43;4.43;;;;;;;25.13;47.59;100341.41;5030741;28;20036;-37
2021/08/14 02:44:43;;;;;;;6.60;4.40;;;;;;;25.02;47.52;100339.03;5030710;28;20017;-36
2021/08/14 02:47:08;;;;;;;7.38;4.57;;;;;;;25.13;47.27;100340.56;5030558;28;20029;-36
2021/08/14 02:49:34;;;;;;;6.57;4.47;;;;;;;25.15;47.11;100325.59;5030631;28;20032;-36
2021/08/14 02:51:59;;;;;;;6.97;4.50;;;;;;;25.01;47.39;100331.97;5030653;28;20125;-36
2021/08/14 02:54:25;;;;;;;6.40;4.25;;;;;;;24.95;47.75;100329.28;5030463;28;20405;-36
2021/08/14 02:56:50;;;;;;;7.72;4.85;;;;;;;24.90;47.92;100325.78;5030062;28;20029;-36
2021/08/14 02:59:15;;;;;;;8.38;4.57;;;;;;;24.86;48.38;100331.00;5030374;28;20374;-38
2021/08/14 03:01:41;;;;;;;7.13;4.18;;;;;;;24.85;48.31;100326.66;5030247;28;20083;-36
2021/08/14 03:04:06;;;;;;;6.75;4.50;;;;;;;24.95;47.94;100333.94;5028902;28;20033;-37
2021/08/14 03:06:32;;;;;;;5.13;4.30;;;;;;;25.05;47.62;100339.28;5030068;28;20069;-36
2021/08/14 03:08:57;;;;;;;6.55;4.15;;;;;;;25.12;47.54;100339.75;5030758;28;20509;-36
2021/08/14 03:11:23;;;;;;;6.63;4.18;;;;;;;25.15;47.66;100335.63;5030308;28;20072;-36
2021/08/14 03:13:48;;;;;;;5.38;4.10;;;;;;;25.07;47.60;100347.97;5029389;28;20029;-36
2021/08/14 03:16:14;;;;;;;6.70;4.38;;;;;;;25.03;48.00;100348.81;5030331;28;20029;-37
2021/08/14 03:18:39;;;;;;;7.70;4.50;;;;;;;25.05;47.82;100343.91;5030333;28;20432;-37
2021/08/14 03:21:05;;;;;;;8.13;4.68;;;;;;;25.10;47.64;100341.97;5030069;28;20026;-37
2021/08/14 03:23:30;;;;;;;6.65;4.47;;;;;;;25.12;47.71;100347.13;5030065;28;20076;-38
2021/08/14 03:25:55;;;;;;;7.38;4.35;;;;;;;25.26;47.31;100333.69;5030201;28;20018;-36
2021/08/14 03:28:21;;;;;;;6.95;4.30;;;;;;;24.89;47.95;100324.19;5030020;28;20040;-36
2021/08/14 03:30:46;;;;;;;7.80;4.65;;;;;;;25.06;47.77;100345.53;5030368;28;20048;-37
2021/08/14 03:33:12;;;;;;;6.68;4.25;;;;;;;25.11;47.94;100345.47;5030043;28;20104;-37
2021/08/14 03:35:37;;;;;;;7.05;4.18;;;;;;;25.13;47.45;100355.00;5029991;28;20037;-37
2021/08/14 03:38:03;;;;;;;8.43;4.22;;;;;;;25.09;47.36;100362.13;5030068;28;20034;-38
2021/08/14 03:40:28;;;;;;;6.00;4.50;;;;;;;25.16;47.59;100364.50;5030031;28;20089;-37
2021/08/14 03:42:54;;;;;;;8.20;4.35;;;;;;;25.22;47.40;100365.28;5029880;28;20087;-38
2021/08/14 03:45:20;;;;;;;6.75;4.10;;;;;;;25.12;47.40;100369.72;5029930;28;20025;-37
2021/08/14 03:47:45;;;;;;;10.13;4.45;;;;;;;25.16;47.43;100370.75;5029893;28;20025;-37
2021/08/14 03:50:11;;;;;;;5.72;4.10;;;;;;;25.20;47.26;100378.38;5029789;28;20536;-37
2021/08/14 03:52:36;;;;;;;9.30;4.10;;;;;;;25.11;47.40;100379.00;5029748;28;20031;-37
2021/08/14 03:55:03;;;;;;;11.13;4.30;;;;;;;25.10;47.43;100371.91;5030088;28;20599;-38
2021/08/14 03:57:29;;;;;;;9.50;4.18;;;;;;;25.19;47.18;100369.41;5029810;28;20022;-37
2021/08/14 03:59:54;;;;;;;8.63;4.63;;;;;;;25.12;47.83;100372.44;5029390;28;20342;-38
2021/08/14 04:02:20;;;;;;;8.48;4.72;;;;;;;25.06;48.18;100380.94;5029884;28;20022;-37
2021/08/14 04:04:45;;;;;;;9.05;4.45;;;;;;;25.10;47.98;100382.78;5029737;28;20025;-37
2021/08/14 04:07:11;;;;;;;5.90;4.30;;;;;;;25.24;47.68;100384.91;5029367;28;20437;-37
2021/08/14 04:09:36;;;;;;;7.43;4.75;;;;;;;25.31;47.47;100385.38;5029901;28;20032;-38
2021/08/14 04:12:02;;;;;;;5.82;4.47;;;;;;;25.46;46.97;100373.53;5029663;28;20479;-38
2021/08/14 04:14:27;;;;;;;8.95;4.43;;;;;;;25.80;46.52;100381.63;5029731;28;20039;-37
2021/08/14 04:16:53;;;;;;;7.53;4.07;;;;;;;26.02;46.28;100386.56;5029820;28;20025;-37
2021/08/14 04:19:18;;;;;;;8.13;4.60;;;;;;;26.26;45.26;100383.81;5029615;28;20029;-39
2021/08/14 04:21:45;;;;;;;9.25;4.50;;;;;;;26.65;44.67;100381.94;5029534;28;20083;-36
2021/08/14 04:24:10;;;;;;;6.30;4.40;;;;;;;26.82;44.20;100381.41;5030836;28;20049;-37
2021/08/14 04:26:36;;;;;;;6.20;4.20;;;;;;;27.07;43.65;100374.72;5033357;28;20029;-38
2021/08/14 04:29:01;;;;;;;9.90;4.50;;;;;;;27.00;43.49;100390.69;5033250;28;20087;-36
2021/08/14 04:31:27;;;;;;;7.28;4.25;;;;;;;27.21;43.41;100388.44;5033237;28;20079;-36
2021/08/14 04:33:52;;;;;;;5.50;4.22;;;;;;;27.45;42.66;100391.03;5032991;28;20026;-37
2021/08/14 04:36:18;;;;;;;6.38;4.45;;;;;;;27.87;41.69;100387.25;5032830;28;20048;-37
2021/08/14 04:38:43;;;;;;;6.75;4.18;;;;;;;28.18;41.16;100388.56;5033179;28;20025;-38
2021/08/14 04:41:09;;;;;;;8.73;4.95;;;;;;;28.69;39.97;100392.13;5032972;28;20418;-36
2021/08/14 04:43:34;;;;;;;13.63;4.80;;;;;;;28.74;39.79;100398.28;5032984;28;20022;-37
2021/08/14 04:45:59;;;;;;;8.13;4.53;;;;;;;28.99;39.08;100398.81;5032831;28;20033;-37
2021/08/14 04:48:25;;;;;;;9.38;4.55;;;;;;;29.33;38.61;100392.78;5032717;28;20032;-38
2021/08/14 04:50:50;;;;;;;10.30;5.28;;;;;;;29.80;37.74;100395.94;5032765;28;20032;-38
2021/08/14 04:53:16;;;;;;;13.63;5.47;;;;;;;30.15;37.09;100393.28;5032730;28;20026;-37
2021/08/14 04:55:41;;;;;;;8.88;5.10;;;;;;;30.40;36.51;100391.72;5032995;28;20090;-37
2021/08/14 04:58:08;;;;;;;5.50;4.22;;;;;;;30.59;36.54;100387.88;5032716;28;20406;-38
2021/08/14 05:00:34;;;;;;;10.60;4.88;;;;;;;30.84;35.59;100389.00;5032646;28;20101;-38
2021/08/14 05:02:59;;;;;;;11.43;5.03;;;;;;;31.19;34.93;100389.00;5032402;28;20056;-37
2021/08/14 05:05:24;;;;;;;8.77;5.00;;;;;;;31.19;35.09;100383.50;5032149;28;20041;-38
2021/08/14 05:07:50;;;;;;;9.32;5.35;;;;;;;31.26;34.89;100383.78;5032594;28;20037;-38
2021/08/14 05:10:15;;;;;;;11.40;5.55;;;;;;;30.59;35.60;100382.38;5032743;28;20029;-40
2021/08/14 05:12:42;;;;;;;8.65;5.07;;;;;;;30.87;35.48;100387.56;5032517;28;20029;-38
2021/08/14 05:15:07;;;;;;;9.05;5.07;;;;;;;31.03;35.69;100394.19;5030976;28;20474;-37
2021/08/14 05:17:33;;;;;;;5.75;5.00;;;;;;;31.04;35.55;100393.06;5032567;28;20099;-37
2021/08/14 05:19:58;;;;;;;7.97;5.28;;;;;;;31.38;34.99;100394.13;5031957;28;20087;-37
2021/08/14 05:22:24;;;;;;;7.72;5.15;;;;;;;31.59;34.61;100394.25;5032126;28;20496;-37
2021/08/14 05:24:49;;;;;;;7.97;4.95;;;;;;;31.75;34.14;100392.53;5032428;28;20032;-37
2021/08/14 05:27:15;;;;;;;7.05;5.25;;;;;;;32.10;33.75;100389.66;5032060;28;20481;-37
2021/08/14 05:29:40;;;;;;;7.38;5.10;;;;;;;32.46;32.82;100395.72;5032291;28;20048;-37
2021/08/14 05:32:07;;;;;;;5.85;4.80;;;;;;;32.31;33.08;100386.91;5031879;28;20477;-36
2021/08/14 05:34:32;;;;;;;7.18;4.97;;;;;;;32.82;32.34;100395.09;5030419;28;20033;-37
2021/08/14 05:36:58;;;;;;;7.97;5.25;;;;;;;32.77;32.08;100397.28;5031078;28;20559;-37
2021/08/14 05:39:23;;;;;;;11.43;4.88;;;;;;;32.92;31.84;100394.72;5032022;28;20025;-37
2021/08/14 05:41:52;;;;;;;7.18;4.85;;;;;;;32.79;32.10;100393.06;5031611;28;20026;-37
2021/08/14 05:44:18;;;;;;;7.35;4.78;;;;;;;33.21;31.45;100392.19;5031561;28;20421;-37
2021/08/14 05:46:44;;;;;;;6.15;4.70;;;;;;;33.60;31.04;100396.25;5030489;28;20544;-37
2021/08/14 05:49:09;;;;;;;8.18;4.65;;;;;;;33.73;30.67;100385.28;5031675;28;20033;-38
2021/08/14 05:51:36;;;;;;;7.82;4.97;;;;;;;33.64;31.03;100393.66;5031634;28;20025;-37
2021/08/14 05:54:02;;;;;;;7.22;5.03;;;;;;;33.50;30.69;100383.72;5031946;28;20110;-37
2021/08/14 05:56:27;;;;;;;8.77;4.82;;;;;;;33.50;31.02;100382.94;5032038;28;20061;-36
2021/08/14 05:58:53;;;;;;;10.30;4.90;;;;;;;33.82;30.55;100383.22;5031562;28;20052;-36
2021/08/14 06:01:18;;;;;;;8.63;5.45;;;;;;;34.00;30.25;100379.03;5031641;28;20025;-37
2021/08/14 06:03:44;;;;;;;8.60;4.65;;;;;;;33.49;31.35;100378.53;5031118;28;20031;-37
2021/08/14 06:06:09;;;;;;;14.65;4.85;;;;;;;33.86;30.62;100379.41;5031609;28;20060;-37
2021/08/14 06:08:35;;;;;;;8.82;4.78;;;;;;;34.31;30.00;100377.66;5031476;28;20504;-36
2021/08/14 06:11:00;;;;;;;10.00;4.57;;;;;;;34.15;30.13;100374.78;5031366;28;20029;-37
2021/08/14 06:13:26;;;;;;;8.70;4.68;;;;;;;34.84;28.89;100372.91;5029952;28;20103;-37
2021/08/14 06:15:51;;;;;;;10.50;4.60;;;;;;;34.87;29.18;100370.59;5031304;28;20028;-36
2021/08/14 06:18:17;;;;;;;12.20;4.80;;;;;;;34.83;29.20;100367.72;5030933;28;20030;-37
2021/08/14 06:20:42;;;;;;;9.23;4.85;;;;;;;35.33;28.20;100365.50;5030860;28;20470;-37
2021/08/14 06:23:07;;;;;;;6.40;4.50;;;;;;;35.74;27.93;100361.41;5030955;28;20029;-37
2021/08/14 06:25:33;;;;;;;9.10;5.00;;;;;;;35.90;27.74;100366.13;5031159;28;20049;-36
2021/08/14 06:27:58;;;;;;;11.98;5.25;;;;;;;35.65;28.00;100366.28;5030935;28;20029;-37
2021/08/14 06:30:24;;;;;;;8.50;5.10;;;;;;;35.23;28.26;100362.09;5030874;28;20365;-36
2021/08/14 06:32:49;;;;;;;8.80;5.32;;;;;;;35.60;27.62;100364.63;5030991;28;20025;-37
2021/08/14 06:35:15;;;;;;;13.25;5.32;;;;;;;35.82;27.45;100341.03;5031153;28;20030;-37
2021/08/14 06:37:43;;;;;;;12.13;5.32;;;;;;;35.95;27.49;100349.22;5030984;28;20033;-37
2021/08/14 06:40:13;;;;;;;12.07;5.30;;;;;;;36.57;26.49;100346.59;5031143;28;20100;-37
2021/08/14 06:42:38;;;;;;;14.75;5.63;;;;;;;36.35;27.02;100348.94;5030653;28;20108;-38
2021/08/14 06:45:04;;;;;;;12.00;5.32;;;;;;;36.01;26.99;100340.25;5030907;28;20111;-38
2021/08/14 06:47:30;;;;;;;12.77;7.90;;;;;;;35.82;27.45;100345.78;5030467;28;20021;-37
2021/08/14 06:49:55;;;;;;;8.13;5.38;;;;;;;35.89;27.53;100345.94;5030554;28;20026;-37
2021/08/14 06:52:21;;;;;;;9.57;5.00;;;;;;;35.54;28.01;100343.88;5030775;28;20124;-37
2021/08/14 06:54:46;;;;;;;8.52;5.03;;;;;;;36.01;27.13;100342.25;5030436;28;20501;-38
2021/08/14 06:57:12;;;;;;;14.57;5.22;;;;;;;35.92;27.67;100341.63;5030520;28;20021;-37
2021/08/14 06:59:37;;;;;;;13.05;5.57;;;;;;;35.94;27.71;100345.63;5030750;28;20048;-38
2021/08/14 07:02:03;;;;;;;16.55;6.45;;;;;;;35.46;28.13;100339.34;5030503;28;20033;-38
2021/08/14 07:04:28;;;;;;;7.97;6.00;;;;;;;34.95;28.93;100340.00;5030440;28;20083;-38
2021/08/14 07:06:54;;;;;;;10.60;5.40;;;;;;;35.36;28.46;100342.66;5030410;28;20050;-37
2021/08/14 07:09:19;;;;;;;9.07;5.80;;;;;;;35.25;28.32;100339.63;5030385;28;20021;-37
2021/08/14 07:11:45;;;;;;;7.88;5.53;;;;;;;33.72;31.03;100336.75;5030481;28;20021;-37
2021/08/14 07:14:11;;;;;;;9.10;5.88;;;;;;;34.93;29.19;100338.75;5030335;28;20060;-37
2021/08/14 07:16:37;;;;;;;12.73;5.88;;;;;;;36.03;27.81;100342.69;5030254;28;20547;-37
2021/08/14 07:19:02;;;;;;;11.25;5.78;;;;;;;36.79;27.01;100334.00;5029122;28;20025;-37
2021/08/14 07:21:28;;;;;;;8.40;5.63;;;;;;;37.30;25.92;100335.69;5030414;28;20448;-37
2021/08/14 07:23:54;;;;;;;11.77;5.53;;;;;;;37.62;25.44;100339.00;5030499;28;20026;-37
2021/08/14 07:26:20;;;;;;;15.70;6.00;;;;;;;37.39;25.57;100332.66;5030331;28;20469;-37
2021/08/14 07:28:45;;;;;;;10.05;5.28;;;;;;;37.15;25.61;100335.47;5030314;28;20036;-37
2021/08/14 07:31:10;;;;;;;10.43;5.28;;;;;;;36.38;26.98;100328.00;5030482;28;20021;-38
2021/08/14 07:33:36;;;;;;;7.88;5.10;;;;;;;36.49;26.76;100328.22;5030300;28;20088;-37
2021/08/14 07:36:02;;;;;;;7.43;4.97;;;;;;;36.69;26.68;100337.34;5030046;28;20029;-37
2021/08/14 07:38:27;;;;;;;10.63;5.50;;;;;;;36.90;26.15;100336.94;5030403;28;20096;-38
2021/08/14 07:40:53;;;;;;;8.70;5.15;;;;;;;36.53;27.07;100332.66;5030256;28;20512;-38
2021/08/14 07:43:18;;;;;;;7.10;5.30;;;;;;;36.83;26.78;100331.28;5029861;28;20041;-37
2021/08/14 07:45:44;;;;;;;9.25;5.30;;;;;;;36.92;26.57;100338.19;5028712;28;20025;-38
2021/08/14 07:48:09;;;;;;;7.70;5.50;;;;;;;36.93;26.05;100337.00;5030043;28;20025;-37
2021/08/14 07:50:35;;;;;;;11.45;5.30;;;;;;;35.49;28.49;100329.53;5030229;28;20018;-37
2021/08/14 07:53:02;;;;;;;7.45;5.25;;;;;;;36.78;27.15;100326.81;5030416;28;20053;-37
2021/08/14 07:55:28;;;;;;;7.77;5.10;;;;;;;37.60;25.94;100334.97;5030118;28;20448;-37
2021/08/14 07:57:54;;;;;;;11.63;5.30;;;;;;;37.89;25.31;100339.00;5029789;28;20025;-38
2021/08/14 08:00:23;;;;;;;7.97;5.43;;;;;;;36.44;26.72;100322.97;5032789;28;20034;-37
2021/08/14 08:02:48;;;;;;;6.30;5.03;;;;;;;35.95;27.07;100324.31;5034117;28;20454;-38
2021/08/14 08:05:14;;;;;;;11.30;5.22;;;;;;;36.16;27.33;100322.00;5033823;28;20036;-42
2021/08/14 08:07:48;;;;;;;7.78;4.90;;;;;;;36.31;27.19;100319.53;5033686;28;20025;-36
2021/08/14 08:10:15;;;;;;;7.53;5.15;;;;;;;36.96;26.58;100319.66;5033501;28;20021;-37
2021/08/14 08:12:41;;;;;;;6.75;4.90;;;;;;;38.06;25.35;100318.22;5033808;28;20025;-39
2021/08/14 08:15:07;;;;;;;11.20;5.07;;;;;;;38.38;24.60;100318.63;5033734;28;20032;-38
2021/08/14 08:17:33;;;;;;;10.93;5.07;;;;;;;39.09;23.75;100315.88;5032493;28;20065;-37
2021/08/14 08:19:58;;;;;;;8.65;4.80;;;;;;;38.64;24.26;100309.44;5033354;28;20084;-37
2021/08/14 08:22:24;;;;;;;7.13;4.75;;;;;;;38.45;24.26;100309.59;5033729;28;20128;-38
2021/08/14 08:24:49;;;;;;;7.22;5.10;;;;;;;38.65;24.12;100301.88;5033512;28;20030;-37
2021/08/14 08:27:15;;;;;;;7.97;5.20;;;;;;;38.77;24.00;100293.28;5033606;28;20143;-37
2021/08/14 08:29:40;;;;;;;9.98;4.85;;;;;;;38.62;24.47;100297.91;5032761;28;20532;-36
2021/08/14 08:32:07;;;;;;;9.50;5.10;;;;;;;39.02;23.97;100306.66;5033207;28;20373;-38
2021/08/14 08:34:32;;;;;;;9.63;5.13;;;;;;;37.95;24.49;100304.19;5033101;28;20397;-38
2021/08/14 08:36:57;;;;;;;7.05;5.18;;;;;;;38.74;23.66;100296.03;5033216;28;20033;-38
2021/08/14 08:39:23;;;;;;;6.47;4.85;;;;;;;39.29;23.33;100296.94;5033179;28;20353;-37
2021/08/14 08:41:50;;;;;;;6.80;4.63;;;;;;;39.83;22.92;100302.91;5033003;28;20018;-38
2021/08/14 08:44:15;;;;;;;6.82;4.55;;;;;;;39.83;22.15;100294.53;5033022;28;20107;-38
2021/08/14 08:46:41;;;;;;;5.28;4.78;;;;;;;39.16;23.15;100292.84;5033462;28;20339;-40
2021/08/14 08:49:06;;;;;;;6.43;4.47;;;;;;;38.39;24.30;100284.13;5032848;28;20017;-38
2021/08/14 08:51:32;;;;;;;6.88;4.72;;;;;;;36.67;26.01;100287.03;5031678;28;20026;-38
2021/08/14 08:53:58;;;;;;;7.95;4.45;;;;;;;37.74;24.92;100283.28;5032732;28;20474;-38
2021/08/14 08:56:24;;;;;;;5.85;5.00;;;;;;;37.85;24.61;100277.06;5032620;28;20044;-38
2021/08/14 08:58:49;;;;;;;12.85;5.00;;;;;;;36.92;25.65;100282.75;5032700;28;20029;-38
2021/08/14 09:01:15;;;;;;;10.77;5.10;;;;;;;37.45;25.40;100279.28;5032358;28;20053;-38
2021/08/14 09:03:40;;;;;;;5.30;4.57;;;;;;;38.08;24.10;100277.81;5032517;28;20033;-38
2021/08/14 09:06:06;;;;;;;11.23;4.10;;;;;;;38.77;22.63;100259.91;5042735;28;20049;-38
2021/08/14 09:08:31;;;;;;;7.05;4.60;;;;;;;38.52;23.08;100262.44;5052565;28;20036;-38
2021/08/14 09:11:10;;;;;;;10.05;4.60;;;;;;;37.84;23.88;100256.84;5051213;28;20028;-37
2021/08/14 09:13:36;;;;;;;6.60;4.28;;;;;;;38.26;22.53;100255.78;5052484;28;20025;-37
2021/08/14 09:16:21;;;;;;;4.47;4.07;;;;;;;37.99;23.42;100255.03;5052834;28;20024;-38
2021/08/14 09:18:56;;;;;;;6.75;4.20;;;;;;;39.04;22.37;100252.22;5052365;28;20031;-38
2021/08/14 09:21:48;;;;;;;7.72;4.40;;;;;;;39.60;21.57;100250.22;5052327;28;20033;-37
2021/08/14 09:24:30;;;;;;;5.85;4.60;;;;;;;39.39;22.19;100252.88;5050175;28;20068;-39
2021/08/14 09:26:56;;;;;;;11.63;4.47;;;;;;;38.66;22.69;100239.56;5052426;28;20222;-38
2021/08/14 09:29:33;;;;;;;7.05;4.38;;;;;;;38.72;22.44;100236.03;5052515;28;20134;-39
2021/08/14 09:31:59;;;;;;;7.53;4.30;;;;;;;38.75;22.39;100234.47;5052262;28;20079;-38
2021/08/14 09:34:25;;;;;;;5.22;3.95;;;;;;;39.58;21.63;100235.91;5051946;28;20032;-38
2021/08/14 09:37:03;;;;;;;9.10;4.47;;;;;;;39.65;20.80;100224.81;5050372;28;20469;-38
2021/08/14 09:39:30;;;;;;;6.10;4.20;;;;;;;40.18;20.01;100231.81;5051802;28;20040;-38
2021/08/14 09:42:08;;;;;;;5.93;4.35;;;;;;;40.26;20.17;100227.06;5051955;28;20052;-37
2021/08/14 09:44:35;;;;;;;11.55;4.85;;;;;;;40.36;19.95;100228.31;5051892;28;20036;-38
2021/08/14 09:47:01;;;;;;;7.68;5.07;;;;;;;40.31;20.39;100223.91;5052013;28;20409;-38
2021/08/14 09:49:26;;;;;;;9.63;4.80;;;;;;;40.07;20.58;100220.63;5051801;28;20025;-39
2021/08/14 09:51:52;;;;;;;6.35;4.40;;;;;;;39.73;20.00;100214.50;5051804;28;20024;-39
2021/08/14 09:54:17;;;;;;;6.85;4.65;;;;;;;39.23;20.70;100215.00;5034027;28;20174;-39
2021/08/14 09:56:43;;;;;;;8.27;4.50;;;;;;;38.59;21.92;100203.34;5051660;28;20428;-39
2021/08/14 09:59:08;;;;;;;7.18;4.60;;;;;;;39.55;20.51;100208.88;5050415;28;20132;-39
2021/08/14 10:01:38;;;;;;;6.60;4.50;;;;;;;39.31;20.34;100204.72;5051701;28;20032;-39
2021/08/14 10:04:03;;;;;;;6.45;4.93;;;;;;;39.58;19.59;100196.94;5051440;28;20025;-38
2021/08/14 10:06:29;;;;;;;10.00;4.82;;;;;;;37.98;21.51;100200.66;5051453;28;20057;-38
2021/08/14 10:08:55;;;;;;;5.50;4.95;;;;;;;38.48;21.42;100198.47;5050263;28;20051;-38
2021/08/14 10:11:21;;;;;;;5.68;5.18;;;;;;;37.95;22.24;100193.09;5033618;28;20017;-39
2021/08/14 10:13:46;;;;;;;6.53;5.00;;;;;;;38.32;21.28;100190.34;5051268;28;20082;-38
2021/08/14 10:16:14;;;;;;;6.32;4.47;;;;;;;38.80;21.03;100186.03;5051504;28;20040;-39
2021/08/14 10:18:40;;;;;;;10.07;5.20;;;;;;;39.56;20.61;100182.59;5051170;28;20036;-38
2021/08/14 10:21:06;;;;;;;10.25;5.38;;;;;;;39.53;19.92;100179.81;5051230;28;20029;-38
2021/08/14 10:23:32;;;;;;;8.23;4.78;;;;;;;37.98;21.41;100184.00;5050393;28;20032;-38
2021/08/14 10:26:14;;;;;;;8.38;5.07;;;;;;;38.72;20.73;100165.72;5051208;28;20025;-38
2021/08/14 10:28:52;;;;;;;7.13;5.00;;;;;;;38.64;20.28;100166.84;5034168;28;20036;-39
2021/08/14 10:31:30;;;;;;;8.63;5.30;;;;;;;38.24;20.57;100174.78;5051241;28;20051;-39
2021/08/14 10:34:16;;;;;;;6.93;5.10;;;;;;;37.19;21.61;100162.75;5050911;28;20561;-37
2021/08/14 10:36:42;;;;;;;6.97;5.43;;;;;;;36.74;22.60;100167.97;5043397;28;20507;-38
2021/08/14 10:39:19;;;;;;;10.10;5.15;;;;;;;36.33;22.75;100137.97;5050953;28;20083;-37
2021/08/14 10:41:45;;;;;;;7.15;5.28;;;;;;;36.55;22.79;100152.97;5050897;28;20043;-39
2021/08/14 10:44:11;;;;;;;8.45;6.32;;;;;;;37.13;22.63;100142.81;5050714;28;20480;-39
2021/08/14 10:46:38;;;;;;;7.20;4.88;;;;;;;38.16;21.30;100139.81;5050871;28;20029;-38
2021/08/14 10:49:05;;;;;;;5.57;4.80;;;;;;;38.70;20.51;100138.31;5050651;28;20485;-40
2021/08/14 10:51:50;;;;;;;5.28;4.60;;;;;;;38.99;20.14;100132.97;5050550;28;20024;-40
2021/08/14 10:54:28;;;;;;;6.82;5.15;;;;;;;39.32;20.08;100125.63;5050732;28;20032;-38
2021/08/14 10:56:54;;;;;;;5.07;4.50;;;;;;;38.68;20.28;100134.31;5050388;28;20461;-37
2021/08/14 10:59:35;;;;;;;7.20;4.72;;;;;;;39.67;19.50;100122.19;5050478;28;20078;-43
2021/08/14 11:02:20;;;;;;;7.65;5.00;;;;;;;39.54;18.79;100118.16;5050906;28;20028;-39
2021/08/14 11:04:55;;;;;;;6.82;4.82;;;;;;;40.24;19.10;100117.97;5043037;28;20132;-38
2021/08/14 11:07:21;;;;;;;6.90;4.90;;;;;;;39.16;19.29;100125.13;5050451;28;20136;-37
2021/08/14 11:09:47;;;;;;;6.65;4.63;;;;;;;39.30;19.72;100120.44;5050209;28;20100;-40
2021/08/14 11:12:32;;;;;;;7.00;4.55;;;;;;;38.67;19.80;100119.63;5050114;28;20049;-39
2021/08/14 11:15:14;;;;;;;7.20;4.55;;;;;;;38.35;20.21;100116.56;5050379;28;20039;-38
2021/08/14 11:17:39;;;;;;;5.30;4.60;;;;;;;39.08;19.96;100110.38;5050208;28;20031;-38
2021/08/14 11:20:20;;;;;;;5.47;4.88;;;;;;;39.18;19.11;100106.06;5049936;28;20017;-37
2021/08/14 11:22:55;;;;;;;7.15;4.85;;;;;;;39.91;19.04;100110.75;5048937;28;20449;-37